Latest Weather Observations for Casey*

IDT60801

Issued at 6:05 pm EST Monday 1 September 2014 (issued every 30 minutes, with the page automatically refreshed every 10 minutes)

About weather observations | Map of weather stations | Latest weather observations for ANT | Other Formats
Station Details ID: 300017 Name: CASEY Lat: -66.28 Lon: 110.52 Height: 40.0 m
Data from the previous 72 hours. | See also: Recent months at Casey*
Date/Time
EST
Temp
°C
App
Temp
°C
Dew
Point
Rel
Hum
%
Delta-T
°C
Wind Press
QNH
hPa
Press
MSL
hPa
Rain
since 9 am
mm
Dir
 
Spd
km/h
Gust
km/h
Spd
kts
Gust
kts
01/06:00pm -6.3 -32.1 -9.5 78 - E 120 141 65 76 970.8 - -
01/05:30pm -6.4 -32.3 -10.1 75 - E 120 139 65 75 970.7 - -
01/05:00pm -6.4 -33.0 -10.1 75 - E 124 146 67 79 970.1 - -
01/04:30pm -6.5 -33.9 -10.0 76 - E 128 146 69 79 970.5 - -
01/04:00pm -7.2 -33.4 -9.6 83 - E 122 146 66 79 970.0 970.5 -
01/03:55pm -7.2 -32.8 -9.6 83 - E 119 139 64 75 970.5 - -
01/03:50pm -7.2 -32.5 -9.6 83 - E 117 132 63 71 972.1 - -
01/03:35pm -7.3 -28.9 -9.1 87 - E 98 128 53 69 972.4 - -
01/03:30pm -7.4 -28.5 -9.3 86 - E 95 117 51 63 974.5 - -
01/03:24pm -7.3 -27.2 -9.1 87 - E 89 115 48 62 973.4 - -
01/03:17pm -7.4 -28.4 -8.9 89 - E 95 126 51 68 975.4 - -
01/03:00pm -7.4 -28.6 -9.3 86 - E 96 124 52 67 973.4 - -
01/02:46pm -7.5 -27.8 -9.1 88 - E 91 115 49 62 974.0 - -
01/02:30pm -7.6 -32.1 -9.1 89 - E 113 143 61 77 972.6 - -
01/02:00pm -7.7 -33.5 -9.2 89 - E 120 141 65 76 971.7 - -
01/01:30pm -7.8 -34.0 -9.1 90 - E 122 146 66 79 970.8 - -
01/01:00pm -7.7 -32.1 -9.0 90 - E 113 132 61 71 972.2 972.7 -
01/12:30pm -7.7 -32.9 -9.5 87 - E 117 135 63 73 972.8 - -
01/12:06pm -7.9 -34.8 -9.2 90 - E 126 145 68 78 972.2 - -
01/12:00pm -7.8 -35.1 -9.4 88 - E 128 143 69 77 971.9 - -
01/11:44am -7.9 -34.9 -9.5 88 - E 126 146 68 79 972.4 - -
01/11:30am -7.9 -34.8 -9.4 89 - E 126 139 68 75 972.5 - -
01/11:00am -7.8 -34.0 -9.3 89 - E 122 143 66 77 972.9 - -
01/10:30am -8.0 -33.8 -9.6 88 - E 120 139 65 75 973.1 - -
01/10:04am -8.3 -32.8 -9.9 88 - E 113 132 61 71 973.9 - -
01/10:00am -8.3 -33.6 -10.2 86 - E 117 132 63 71 974.1 974.6 -
01/09:30am -8.4 -34.3 -10.5 85 - E 120 139 65 75 974.0 - -
01/09:00am -8.2 -34.8 -10.4 84 - E 124 143 67 77 973.7 - -
01/08:30am -8.0 -35.3 -9.6 88 - E 128 150 69 81 973.7 - -
01/08:00am -7.9 -33.5 -9.2 90 - E 119 143 64 77 974.7 - -
01/07:54am -7.8 -33.0 -9.3 89 - E 117 139 63 75 974.8 - -
01/07:30am -7.6 -30.9 -8.9 90 - E 107 130 58 70 976.9 - -
01/07:27am -7.5 -30.6 -8.8 90 - E 106 117 57 63 977.1 - -
01/07:19am -7.3 -26.8 -8.7 90 - E 87 109 47 59 978.0 - -
01/07:12am -7.3 -25.4 -8.4 92 - E 80 102 43 55 980.0 - -
01/07:00am -7.4 -22.7 -8.8 90 - ESE 65 83 35 45 981.3 981.9 -
01/06:55am -7.4 -21.9 -8.6 91 - ESE 61 80 33 43 982.0 - -
01/06:41am -7.7 -20.7 -10.4 81 - SSE 52 74 28 40 983.1 - -
01/06:30am -7.5 -20.5 -10.7 78 - SSE 52 63 28 34 983.3 - -
01/06:07am -7.2 -20.5 -10.0 80 - SSE 54 72 29 39 983.3 - -
01/06:00am -7.3 -19.9 -10.3 79 - SE 50 65 27 35 983.4 - -
01/05:30am -7.0 -20.9 -10.0 79 - SSE 57 76 31 41 983.5 - -
01/05:00am -6.7 -20.0 -10.0 77 - SE 54 82 29 44 983.5 - -
01/04:30am -6.7 -20.9 -9.7 79 - SSE 59 80 32 43 983.6 - -
01/04:09am -7.0 -20.9 -9.9 80 - SSE 57 76 31 41 983.9 - -
01/04:00am -6.9 -20.8 -9.8 80 - SSE 57 72 31 39 984.3 984.8 -
01/03:37am -7.2 -21.1 -9.6 83 - SE 57 76 31 41 984.4 - -
01/03:30am -7.0 -20.6 -9.4 83 - SE 56 70 30 38 984.5 - -
01/03:13am -6.9 -19.4 -8.7 87 - SE 50 69 27 37 984.8 - -
01/03:09am -6.8 -20.0 -8.6 87 - ESE 54 69 29 37 984.3 - -
01/03:00am -6.9 -23.1 -8.3 90 - E 70 89 38 48 983.9 - -
01/02:35am -6.7 -25.4 -8.6 86 - E 83 102 45 55 982.4 - -
01/02:30am -6.8 -26.3 -8.7 86 - E 87 104 47 56 982.0 - -
01/02:00am -6.8 -27.0 -8.6 87 - E 91 109 49 59 981.7 - -
01/01:49am -6.8 -26.3 -8.6 87 - E 87 106 47 57 981.9 - -
01/01:38am -6.6 -25.3 -8.4 87 - E 83 100 45 54 982.3 - -
01/01:30am -6.7 -21.2 -8.5 87 - ESE 61 83 33 45 983.6 - -
01/01:00am -6.6 -23.2 -8.4 87 - E 72 91 39 49 983.0 983.6 -
01/12:45am -7.0 -24.8 -8.8 87 - E 78 96 42 52 982.7 - -
01/12:30am -7.0 -25.5 -8.8 87 - E 82 96 44 52 982.5 - -
01/12:00am -7.6 -26.2 -9.4 87 - E 82 93 44 50 982.3 - -
 
Date/Time
EST
Temp
°C
App
Temp
°C
Dew
Point
Rel
Hum
%
Delta-T
°C
Wind Press
QNH
hPa
Press
MSL
hPa
Rain
since 9 am
mm
Dir
 
Spd
km/h
Gust
km/h
Spd
kts
Gust
kts
31/11:30pm -7.4 -24.9 -10.1 81 - E 76 85 41 46 983.5 - -
31/11:00pm -7.3 -25.5 -9.5 84 - E 80 95 43 51 982.8 - -
31/10:30pm -7.0 -26.9 -9.7 81 - E 89 102 48 55 982.8 - -
31/10:00pm -7.1 -26.3 -10.1 79 - E 85 98 46 53 983.2 983.8 -
31/09:30pm -7.1 -25.9 -9.6 82 - E 83 95 45 51 983.5 - -
31/09:00pm -7.4 -27.0 -10.1 81 - E 87 106 47 57 983.5 - -
31/08:42pm -7.4 -27.4 -9.9 82 - E 89 107 48 58 983.4 - -
31/08:30pm -7.3 -27.6 -9.8 82 - E 91 107 49 58 983.2 - -
31/08:00pm -6.3 -26.0 -11.4 67 - ENE 87 106 47 57 983.8 - -
31/07:58pm -6.4 -26.1 -11.1 69 - ENE 87 106 47 57 983.8 - -
31/07:30pm -6.1 -25.7 -9.6 76 - ENE 87 102 47 55 983.8 - -
31/07:13pm -6.6 -24.1 -10.1 76 - ENE 76 95 41 51 984.2 - -
31/07:00pm -6.5 -25.3 -10.3 74 - E 83 95 45 51 984.2 984.7 -
31/06:30pm -6.3 -25.5 -10.2 74 - ENE 85 95 46 51 984.3 - -
31/06:00pm -6.7 -26.3 -9.7 79 - E 87 102 47 55 983.8 - -
31/05:30pm -7.5 -25.8 -11.0 76 - E 80 93 43 50 984.5 - -
31/05:00pm -7.6 -25.3 -13.0 65 - E 76 85 41 46 985.0 - -
31/04:30pm -8.1 -25.4 -13.5 65 - E 74 83 40 45 985.5 - -
31/04:00pm -8.5 -24.5 -12.6 72 - E 67 87 36 47 986.2 986.7 -
31/03:30pm -8.8 -25.3 -12.2 76 - E 70 82 38 44 986.8 - -
31/03:00pm -8.8 -27.2 -12.1 77 - E 80 95 43 51 986.7 - -
31/02:30pm -8.9 -25.8 -11.9 79 - E 72 87 39 47 987.1 - -
31/02:00pm -9.0 -24.6 -12.1 78 - E 65 78 35 42 987.8 - -
31/01:30pm -9.3 -25.6 -11.6 83 - E 69 82 37 44 988.1 - -
31/01:00pm -9.3 -24.5 -12.1 80 - E 63 74 34 40 988.6 989.1 -
31/12:30pm -9.5 -23.4 -13.4 73 - ENE 56 67 30 36 989.6 - -
31/12:00pm -10.1 -23.6 -13.5 76 - ENE 54 63 29 34 990.2 - -
31/11:51am -10.5 -21.6 -13.3 80 - NE 41 57 22 31 990.8 - -
31/11:30am -11.4 -18.6 -15.4 72 - NNE 20 37 11 20 991.3 - -
31/11:00am -10.1 -18.8 -14.7 69 - NNW 28 82 15 44 991.7 - -
31/10:52am -9.7 -18.7 -14.5 68 - N 30 82 16 44 991.9 - -
31/10:49am -10.5 -19.2 -15.2 68 - N 28 46 15 25 992.5 - -
31/10:45am -10.8 -19.5 -16.1 65 - N 28 44 15 24 992.3 - -
31/10:30am -12.1 -18.8 -18.2 60 - ESE 17 20 9 11 992.6 - -
31/10:00am -11.6 -18.4 -18.8 55 - NNE 17 28 9 15 992.8 993.3 -
31/09:30am -13.2 -19.6 -19.3 60 - NE 15 32 8 17 993.0 - -
31/09:00am -14.8 -20.5 -20.1 64 - SE 11 22 6 12 993.2 - -
31/08:30am -15.0 -21.8 -19.2 70 - E 17 24 9 13 993.0 - -
31/08:00am -14.5 -20.5 -18.6 71 - E 13 20 7 11 993.3 - -
31/07:30am -14.4 -21.5 -18.6 70 - ESE 19 22 10 12 992.8 - -
31/07:00am -13.8 -21.5 -18.1 70 - E 22 30 12 16 992.7 993.2 -
31/06:30am -13.2 -21.2 -17.5 70 - ENE 24 32 13 17 992.6 - -
31/06:00am -12.9 -20.5 -16.4 75 - NE 22 28 12 15 992.2 - -
31/05:30am -12.3 -23.5 -16.3 72 - NE 41 46 22 25 991.7 - -
31/05:00am -12.2 -21.7 -15.5 76 - NE 32 39 17 21 991.5 - -
31/04:30am -12.1 -21.6 -15.1 78 - NE 32 41 17 22 991.5 - -
31/04:00am -11.9 -21.0 -14.9 78 - NE 30 33 16 18 991.1 991.6 -
31/03:30am -11.9 -24.4 -14.6 80 - ENE 48 59 26 32 990.6 - -
31/03:00am -11.7 -24.1 -14.1 82 - ENE 48 54 26 29 990.3 - -
31/02:30am -11.4 -23.5 -14.5 78 - ENE 46 54 25 29 989.8 - -
31/02:00am -11.5 -25.5 -14.5 78 - ENE 56 63 30 34 989.0 - -
31/01:30am -11.3 -24.9 -14.2 79 - ENE 54 61 29 33 988.6 - -
31/01:00am -11.0 -24.6 -14.9 73 - ENE 54 61 29 33 988.0 988.5 -
31/12:30am -10.7 -24.3 -15.3 69 - ENE 54 59 29 32 988.1 - -
31/12:00am -10.9 -26.6 -14.8 73 - ENE 65 72 35 39 987.6 - -
 
Date/Time
EST
Temp
°C
App
Temp
°C
Dew
Point
Rel
Hum
%
Delta-T
°C
Wind Press
QNH
hPa
Press
MSL
hPa
Rain
since 9 am
mm
Dir
 
Spd
km/h
Gust
km/h
Spd
kts
Gust
kts
30/11:30pm -10.7 -27.1 -13.8 78 - ENE 69 76 37 41 986.8 - -
30/11:00pm -10.6 -25.2 -14.5 73 - ENE 59 70 32 38 986.6 - -
30/10:30pm -10.7 -23.5 -14.4 74 - ENE 50 61 27 33 986.8 - -
30/10:00pm -10.8 -24.8 -15.2 70 - ENE 56 67 30 36 986.3 986.8 -
30/09:30pm -11.0 -24.6 -15.0 72 - E 54 65 29 35 986.2 - -
30/09:00pm -11.2 -25.4 -15.1 73 - E 57 65 31 35 985.8 - -
30/08:30pm -11.5 -25.1 -15.3 73 - E 54 65 29 35 985.7 - -
30/08:00pm -11.4 -24.3 -15.6 71 - E 50 63 27 34 985.9 - -
30/07:30pm -11.4 -22.3 -16.8 64 - E 39 54 21 29 986.4 - -
30/07:00pm -10.5 -20.2 -16.0 64 - E 33 50 18 27 985.8 986.3 -
30/06:58pm -10.8 -19.9 -16.3 64 - E 30 48 16 26 986.0 - -
30/06:56pm -10.4 -19.2 -16.3 62 - E 28 44 15 24 986.2 - -
30/06:30pm -10.3 -16.6 -17.8 54 - SE 15 20 8 11 986.3 - -
30/06:00pm -9.4 -15.4 -18.8 46 - S 13 22 7 12 986.2 - -
30/05:30pm -9.8 -15.0 -18.5 49 - ESE 9 17 5 9 986.2 - -
30/05:00pm -9.8 -17.9 -18.5 49 - SE 24 37 13 20 985.9 - -
30/04:46pm -9.7 -18.5 -17.9 51 - SSW 28 61 15 33 985.7 - -
30/04:30pm -11.1 -18.3 -16.4 65 - SSW 20 30 11 16 986.0 - -
30/04:00pm -11.6 -18.6 -14.5 79 - SSW 19 20 10 11 986.0 986.5 -
30/03:30pm -11.5 -19.4 -14.5 78 - S 24 26 13 14 985.7 - -
30/03:00pm -10.2 -15.0 -17.9 53 - WNW 7 19 4 10 985.7 - -
30/02:30pm -10.0 -16.0 -18.2 51 - ESE 13 24 7 13 985.6 - -
30/02:00pm -10.2 -17.8 -17.1 57 - E 22 37 12 20 985.2 - -
30/01:30pm -10.8 -15.9 -15.5 68 - NW 9 15 5 8 985.4 - -
30/01:00pm -10.6 -15.7 -15.9 65 - NE 9 15 5 8 985.3 985.8 -
30/12:30pm -10.5 -16.0 -15.8 65 - NE 11 19 6 10 985.1 - -
30/12:00pm -10.5 -15.2 -14.9 70 - S 7 13 4 7 985.0 - -
30/11:30am -11.1 -17.2 -13.7 81 - SSW 15 19 8 10 985.0 - -
30/11:00am -11.0 -18.5 -14.5 75 - SSW 22 30 12 16 984.6 - -
30/10:30am -10.9 -18.8 -15.3 70 - S 24 32 13 17 984.2 - -
30/10:00am -10.8 -15.4 -17.8 56 - NW 6 7 3 4 984.1 984.6 -
30/09:30am -10.4 -15.2 -18.1 53 - ENE 7 11 4 6 983.2 - -
30/09:00am -10.4 -16.4 -17.9 54 - NE 13 17 7 9 983.0 - -
30/08:30am -10.0 -17.4 -19.6 45 - ESE 20 35 11 19 982.6 - -
30/08:00am -9.9 -17.6 -17.4 54 - ENE 22 33 12 18 982.5 - -
30/07:30am -9.8 -18.2 -17.5 53 - ENE 26 43 14 23 981.6 - -
30/07:18am -9.5 -18.3 -17.5 52 - ENE 28 39 15 21 981.5 - -
30/07:00am -10.3 -16.3 -17.4 56 - S 13 20 7 11 981.5 982.1 -
30/06:30am -11.7 -17.7 -17.9 60 - S 13 19 7 10 981.5 - -
30/06:00am -10.8 -18.5 -17.4 58 - S 22 33 12 18 981.3 - -
30/05:30am -9.8 -17.9 -17.8 52 - SSE 24 39 13 21 981.4 - -
30/05:00am -9.8 -17.4 -16.9 56 - S 22 35 12 19 981.3 - -
30/04:30am -9.6 -19.1 -15.7 61 - E 32 37 17 20 981.0 - -
30/04:00am -8.3 -16.2 -14.5 61 - ESE 24 50 13 27 980.6 981.2 -
30/03:53am -8.3 -17.3 -13.9 64 - ESE 30 50 16 27 980.3 - -
30/03:30am -9.8 -15.9 -13.5 74 - SE 15 24 8 13 980.5 - -
30/03:00am -10.3 -15.3 -13.4 78 - SE 9 13 5 7 980.5 - -
30/02:30am -10.5 -16.2 -13.0 82 - ESE 13 20 7 11 981.0 - -
30/02:00am -11.9 -17.0 -14.5 81 - S 9 11 5 6 980.8 - -
30/01:30am -10.4 -16.1 -13.3 79 - SSE 13 15 7 8 980.1 - -
30/01:00am -11.8 -17.6 -14.2 82 - SSE 13 15 7 8 980.4 981.0 -
30/12:30am -10.8 -16.5 -13.4 81 - S 13 20 7 11 980.5 - -
30/12:00am -11.5 -17.7 -13.9 82 - S 15 20 8 11 980.5 - -
 
Date/Time
EST
Temp
°C
App
Temp
°C
Dew
Point
Rel
Hum
%
Delta-T
°C
Wind Press
QNH
hPa
Press
MSL
hPa
Rain
since 9 am
mm
Dir
 
Spd
km/h
Gust
km/h
Spd
kts
Gust
kts
29/11:30pm -12.5 -20.4 -14.5 85 - SSE 24 28 13 15 980.3 - -
29/11:00pm -12.3 -19.4 -13.9 88 - S 20 24 11 13 980.5 - -
29/10:30pm -12.2 -19.7 -13.8 88 - S 22 26 12 14 980.1 - -
29/10:00pm -11.8 -19.3 -13.4 88 - SSE 22 26 12 14 980.1 980.7 -
29/09:30pm -12.2 -19.3 -13.8 88 - SSE 20 22 11 12 980.0 - -
29/09:00pm -13.4 -19.6 -15.0 88 - SSE 15 19 8 10 979.9 - -
29/08:30pm -14.0 -19.9 -15.7 87 - SSE 13 15 7 8 979.7 - -

Other Formats:

Comma delimited format used in spreadsheet applications
http://www.bom.gov.au/fwo/IDT60803/IDT60803.89611.axf

JavaScript Object Notation format (JSON) in row-major order
http://www.bom.gov.au/fwo/IDT60803/IDT60803.89611.json